Time;durP1;ratioP1;P1;durP2;ratioP2;P2;SDS_P1;SDS_P2;PMS_P1;PMS_P2;Temp;Humidity;BMP_temperature;BMP_pressure;BME280_temperature;BME280_humidity;BME280_pressure;Samples;Min_cycle;Max_cycle;Signal;HPM_P1;HPM_P2
2022/11/29 00:01:36;;;;;;;208.17;98.87;;;;;;;-4.12;100.00;98457.10;1673069;85;21066;-77
2022/11/29 00:04:03;;;;;;;216.30;95.07;;;;;;;-4.12;100.00;98457.10;1672564;84;21002;-80
2022/11/29 00:06:32;;;;;;;216.38;94.77;;;;;;;-4.13;100.00;98456.28;1673024;85;21085;-77
2022/11/29 00:09:00;;;;;;;;;;;;;;;-4.11;100.00;98462.72;1644840;86;21049;-77
2022/11/29 00:14:17;;;;;;;167.30;74.27;;;;;;;-4.16;100.00;98455.32;1657477;85;21085;-77
2022/11/29 00:16:44;;;;;;;179.45;81.40;;;;;;;-4.17;100.00;98464.27;1674551;85;21043;-77
2022/11/29 00:19:11;;;;;;;183.18;84.77;;;;;;;-4.17;100.00;98459.47;1674045;85;21028;-77
2022/11/29 00:21:38;;;;;;;168.55;76.47;;;;;;;-4.16;100.00;98455.32;1674303;85;21052;-77
2022/11/29 00:24:06;;;;;;;191.95;87.62;;;;;;;-4.14;100.00;98453.31;1674010;85;21472;-80
2022/11/29 00:26:33;;;;;;;179.42;83.20;;;;;;;-4.14;100.00;98453.31;1674288;85;21591;-77
2022/11/29 00:28:59;;;;;;;179.53;82.30;;;;;;;-4.14;100.00;98451.17;1674127;85;21032;-80
2022/11/29 00:31:29;;;;;;;178.00;85.25;;;;;;;-4.14;100.00;98445.87;1674404;85;21044;-77
2022/11/29 00:33:58;;;;;;;160.80;78.78;;;;;;;-4.17;100.00;98448.38;1674068;85;21729;-77
2022/11/29 00:36:25;;;;;;;172.80;83.07;;;;;;;-4.16;100.00;98450.53;1674356;85;21112;-77
2022/11/29 00:38:51;;;;;;;175.90;80.53;;;;;;;-4.19;100.00;98442.92;1654493;85;21505;-80
2022/11/29 00:41:19;;;;;;;170.53;79.72;;;;;;;-4.21;100.00;98449.72;1674214;85;21012;-76
2022/11/29 00:43:45;;;;;;;150.75;71.15;;;;;;;-4.21;100.00;98443.10;1665296;86;21039;-80
2022/11/29 00:46:12;;;;;;;160.35;72.90;;;;;;;-4.26;100.00;98439.67;1665532;86;21032;-77
2022/11/29 00:48:39;;;;;;;172.35;77.90;;;;;;;-4.29;100.00;98437.36;1665120;86;21024;-77
2022/11/29 00:51:06;;;;;;;170.87;76.30;;;;;;;-4.27;100.00;98434.06;1665541;86;21543;-79
2022/11/29 00:53:33;;;;;;;181.40;80.50;;;;;;;-4.25;100.00;98440.49;1665298;86;21040;-77
2022/11/29 00:56:00;;;;;;;159.25;74.35;;;;;;;-4.24;100.00;98443.96;1665503;86;21111;-80
2022/11/29 00:58:27;;;;;;;151.15;72.22;;;;;;;-4.25;100.00;98439.17;1665221;86;21621;-77
2022/11/29 01:00:54;;;;;;;153.12;71.87;;;;;;;-4.27;100.00;98438.53;1665482;86;21495;-80
2022/11/29 01:03:21;;;;;;;150.47;67.20;;;;;;;-4.32;100.00;98439.54;1665227;86;21047;-80
2022/11/29 01:05:48;;;;;;;141.22;67.58;;;;;;;-4.39;100.00;98443.38;1665235;86;21079;-80
2022/11/29 01:08:16;;;;;;;166.25;71.75;;;;;;;-4.49;100.00;98444.60;1665322;86;21099;-77
2022/11/29 01:10:43;;;;;;;157.50;75.55;;;;;;;-4.59;100.00;98441.67;1665379;86;21091;-77
2022/11/29 01:13:10;;;;;;;161.20;70.87;;;;;;;-4.59;100.00;98441.67;1668207;85;21030;-80
2022/11/29 01:15:37;;;;;;;163.18;74.80;;;;;;;-4.58;100.00;98443.31;1642713;86;21081;-77
2022/11/29 01:18:03;;;;;;;156.50;73.07;;;;;;;-4.63;100.00;98443.50;1672883;84;21018;-80
2022/11/29 01:20:30;;;;;;;181.78;77.00;;;;;;;-4.63;100.00;98438.21;1642723;86;21478;-79
2022/11/29 01:22:57;;;;;;;162.57;75.90;;;;;;;-4.63;100.00;98437.71;1672946;84;21028;-77
2022/11/29 01:25:24;;;;;;;159.72;74.03;;;;;;;-4.64;100.00;98437.89;1642511;86;21063;-78
2022/11/29 01:27:51;;;;;;;175.70;78.78;;;;;;;-4.64;100.00;98434.74;1672998;84;21038;-77
2022/11/29 01:30:18;;;;;;;151.93;69.53;;;;;;;-4.62;100.00;98442.50;1642635;86;21519;-80
2022/11/29 01:32:45;;;;;;;145.62;66.67;;;;;;;-4.65;100.00;98436.24;1651465;85;21041;-77
2022/11/29 01:35:12;;;;;;;161.07;67.97;;;;;;;-4.68;100.00;98439.25;1642638;86;21020;-78
2022/11/29 01:37:38;;;;;;;152.27;72.00;;;;;;;-4.70;100.00;98443.39;1672867;84;21791;-77
2022/11/29 01:40:07;;;;;;;155.20;74.07;;;;;;;-4.68;100.00;98432.63;1672672;85;21545;-77
2022/11/29 01:42:33;;;;;;;164.45;70.87;;;;;;;-4.70;100.00;98430.17;1673657;85;21048;-79
2022/11/29 01:45:11;;;;;;;163.62;72.55;;;;;;;-4.72;100.00;98428.67;1674159;85;21005;-77
2022/11/29 01:47:39;;;;;;;167.15;72.40;;;;;;;-4.73;100.00;98426.53;1673470;85;21088;-79
2022/11/29 01:50:07;;;;;;;151.90;69.17;;;;;;;-4.76;100.00;98434.81;1674314;85;20988;-80
2022/11/29 01:52:34;;;;;;;155.50;70.60;;;;;;;-4.75;100.00;98432.99;1674650;85;21540;-80
2022/11/29 01:55:03;;;;;;;157.25;72.05;;;;;;;-4.86;100.00;98427.59;1674132;85;21075;-80
2022/11/29 01:57:30;;;;;;;151.27;67.32;;;;;;;-4.97;100.00;98410.77;1674434;85;21080;-80
2022/11/29 02:00:03;;;;;;;154.42;69.27;;;;;;;-4.97;100.00;98410.77;1652834;85;21753;-80
2022/11/29 02:02:41;;;;;;;138.10;66.65;;;;;;;-4.96;100.00;98423.80;1673921;85;21103;-80
2022/11/29 02:05:09;;;;;;;144.07;66.20;;;;;;;-4.98;100.00;98424.98;1674324;85;21032;-80
2022/11/29 02:07:35;;;;;;;137.07;70.87;;;;;;;-4.92;100.00;98426.95;1674355;85;21083;-77
2022/11/29 02:10:02;;;;;;;153.00;73.80;;;;;;;-4.83;100.00;98425.91;1674208;85;20996;-80
2022/11/29 02:12:58;;;;;;;136.10;62.25;;;;;;;-4.82;100.00;98428.38;1675082;84;21132;-80
2022/11/29 02:15:45;;;;;;;139.75;60.98;;;;;;;-4.77;100.00;98427.06;1682116;84;21077;-77
2022/11/29 02:18:16;;;;;;;122.95;53.85;;;;;;;-4.77;100.00;98426.56;1681881;85;21068;-77
2022/11/29 02:21:05;;;;;;;119.33;54.40;;;;;;;-4.77;100.00;98426.56;1682159;84;21020;-77
2022/11/29 02:24:06;;;;;;;117.40;52.20;;;;;;;-4.77;100.00;98422.59;1681930;84;20993;-78
2022/11/29 02:27:07;;;;;;;117.47;53.83;;;;;;;-4.79;100.00;98427.20;1682203;85;21039;-77
2022/11/29 02:30:03;;;;;;;116.33;52.43;;;;;;;-4.85;100.00;98422.13;1681350;84;21504;-77
2022/11/29 02:32:51;;;;;;;123.92;54.40;;;;;;;-4.85;100.00;98420.80;1682028;85;21096;-77
2022/11/29 02:36:05;;;;;;;107.63;49.35;;;;;;;-4.83;100.00;98427.23;1681927;84;21017;-77
2022/11/29 02:39:19;;;;;;;105.65;48.68;;;;;;;-4.82;100.00;98428.38;1682027;84;21008;-77
2022/11/29 02:42:19;;;;;;;106.55;49.83;;;;;;;-4.86;100.00;98429.73;1680444;85;21088;-76
2022/11/29 02:44:52;;;;;;;100.18;45.95;;;;;;;-4.87;100.00;98432.06;1674149;85;21012;-80
2022/11/29 02:47:48;;;;;;;114.97;52.75;;;;;;;-4.81;100.00;98430.53;1674397;84;21984;-77
2022/11/29 02:50:44;;;;;;;115.42;50.15;;;;;;;-4.83;100.00;98430.70;1673798;85;21020;-77
2022/11/29 02:53:30;;;;;;;112.28;48.70;;;;;;;-4.83;100.00;98439.95;1674355;85;21036;-77
2022/11/29 02:56:30;;;;;;;110.08;54.80;;;;;;;-4.85;100.00;98439.31;1674281;84;21075;-80
2022/11/29 02:59:08;;;;;;;98.45;44.77;;;;;;;-4.86;100.00;98442.95;1674100;85;21016;-77
2022/11/29 03:02:22;;;;;;;94.95;49.93;;;;;;;-4.85;100.00;98446.42;1674456;85;21085;-77
2022/11/29 03:05:04;;;;;;;100.50;46.55;;;;;;;-4.89;100.00;98449.89;1674139;85;21047;-79
2022/11/29 03:07:42;;;;;;;93.80;45.70;;;;;;;-4.96;100.00;98450.73;1673649;85;21103;-80
2022/11/29 03:10:38;;;;;;;108.17;48.17;;;;;;;-5.09;100.00;98458.39;1674064;85;21763;-80
2022/11/29 03:13:20;;;;;;;125.33;55.35;;;;;;;-5.09;100.00;98458.39;1676872;85;21092;-80
2022/11/29 03:15:52;;;;;;;119.37;47.93;;;;;;;-5.19;100.00;98459.41;1655435;85;21064;-80
2022/11/29 03:18:33;;;;;;;107.78;45.73;;;;;;;-5.19;100.00;98459.41;1681867;84;21456;-77
2022/11/29 03:21:47;;;;;;;119.97;53.13;;;;;;;-5.19;100.00;98462.55;1686152;84;21082;-80
2022/11/29 03:24:43;;;;;;;123.80;50.58;;;;;;;-5.22;100.00;98458.91;1686141;83;21029;-80
2022/11/29 03:27:16;;;;;;;103.65;49.42;;;;;;;-5.29;100.00;98461.92;1686400;83;20998;-80
2022/11/29 03:29:51;;;;;;;109.70;49.25;;;;;;;-5.32;100.00;98459.09;1686405;84;21000;-80
2022/11/29 03:32:32;;;;;;;96.90;45.48;;;;;;;-5.30;100.00;98462.88;1686072;83;21022;-79
2022/11/29 03:35:16;;;;;;;104.53;49.03;;;;;;;-5.31;100.00;98465.20;1674767;85;21036;-77
2022/11/29 03:38:17;;;;;;;92.33;43.10;;;;;;;-5.36;100.00;98463.58;1686593;83;21915;-77
2022/11/29 03:40:53;;;;;;;88.55;40.48;;;;;;;-5.34;100.00;98463.73;1685969;84;21015;-80
2022/11/29 03:43:34;;;;;;;92.78;40.38;;;;;;;-5.33;100.00;98464.55;1676163;84;21559;-80
2022/11/29 03:46:10;;;;;;;89.62;41.77;;;;;;;-5.34;100.00;98463.73;1674367;84;21084;-76
2022/11/29 03:48:45;;;;;;;89.85;39.90;;;;;;;-5.30;100.00;98474.27;1672745;84;21493;-78
2022/11/29 03:51:20;;;;;;;83.37;40.35;;;;;;;-5.32;100.00;98468.84;1670710;84;21505;-80
2022/11/29 03:54:03;;;;;;;86.17;40.25;;;;;;;-5.32;100.00;98472.80;1674033;85;21536;-80
2022/11/29 03:56:38;;;;;;;72.70;34.13;;;;;;;-5.39;100.00;98469.50;1674319;85;21099;-80
2022/11/29 03:59:25;;;;;;;74.30;35.85;;;;;;;-5.41;100.00;98472.81;1674134;85;21019;-77
2022/11/29 04:02:15;;;;;;;82.08;38.85;;;;;;;-5.41;100.00;98478.59;1674344;85;21036;-77
2022/11/29 04:04:57;;;;;;;71.22;34.23;;;;;;;-5.42;100.00;98475.63;1674274;84;21017;-77
2022/11/29 04:08:07;;;;;;;77.82;38.95;;;;;;;-5.37;100.00;98479.92;1674288;85;21095;-77
2022/11/29 04:11:16;;;;;;;81.82;34.88;;;;;;;-5.37;100.00;98487.02;1672843;85;21028;-77
2022/11/29 04:14:13;;;;;;;86.70;36.90;;;;;;;-5.40;100.00;98487.66;1678964;85;20993;-80
2022/11/29 04:17:38;;;;;;;79.77;37.48;;;;;;;-5.36;100.00;98484.21;1681266;85;21464;-77
2022/11/29 04:20:30;;;;;;;82.97;38.78;;;;;;;-5.35;100.00;98489.00;1681927;85;21247;-77
2022/11/29 04:23:20;;;;;;;81.45;37.08;;;;;;;-5.39;100.00;98485.84;1680788;85;21063;-80
2022/11/29 04:26:09;;;;;;;89.05;40.50;;;;;;;-5.43;100.00;98492.47;1681879;84;20996;-77
2022/11/29 04:29:00;;;;;;;68.05;35.43;;;;;;;-5.50;100.00;98492.80;1681399;85;20997;-80
2022/11/29 04:31:33;;;;;;;79.47;36.55;;;;;;;-5.48;100.00;98486.84;1682006;85;21057;-79
2022/11/29 04:34:25;;;;;;;78.00;36.58;;;;;;;-5.43;100.00;98488.51;1617210;84;21080;-80
2022/11/29 04:37:10;;;;;;;92.50;43.58;;;;;;;-5.37;100.00;98493.63;1682032;84;21457;-77
2022/11/29 04:40:02;;;;;;;99.30;42.10;;;;;;;-5.37;100.00;98494.45;1681962;84;21112;-80
2022/11/29 04:43:06;;;;;;;91.65;41.48;;;;;;;-5.35;100.00;98496.42;1677970;85;21216;-79
2022/11/29 04:45:59;;;;;;;99.85;46.60;;;;;;;-5.36;100.00;98504.03;1674217;85;21008;-80
2022/11/29 04:48:44;;;;;;;92.33;40.08;;;;;;;-5.40;100.00;98501.38;1674318;85;21028;-76
2022/11/29 04:51:42;;;;;;;98.05;43.65;;;;;;;-5.43;100.00;98507.00;1674194;85;21016;-80
2022/11/29 04:54:27;;;;;;;87.90;37.53;;;;;;;-5.45;100.00;98500.56;1674308;85;26539;-80
2022/11/29 04:57:02;;;;;;;94.00;40.67;;;;;;;-5.45;100.00;98503.20;1673343;85;21466;-80
2022/11/29 04:59:41;;;;;;;94.47;46.15;;;;;;;-5.42;100.00;98507.33;1641900;87;21030;-80
2022/11/29 05:02:19;;;;;;;78.00;37.55;;;;;;;-5.48;100.00;98510.13;1660154;85;21921;-77
2022/11/29 05:05:06;;;;;;;73.45;38.75;;;;;;;-5.48;100.00;98511.45;1673090;85;21045;-77
2022/11/29 05:07:51;;;;;;;76.72;35.55;;;;;;;-5.56;100.00;98513.27;1672279;84;21125;-76
2022/11/29 05:10:59;;;;;;;78.92;33.83;;;;;;;-5.55;100.00;98519.73;1673030;84;21058;-77
2022/11/29 05:14:04;;;;;;;71.05;35.30;;;;;;;-5.52;100.00;98517.23;1673830;84;21307;-76
2022/11/29 05:16:55;;;;;;;75.85;36.58;;;;;;;-5.52;100.00;98519.38;1674511;84;21058;-80
2022/11/29 05:19:46;;;;;;;73.37;38.20;;;;;;;-5.51;100.00;98526.81;1673654;85;21607;-77
2022/11/29 05:22:48;;;;;;;77.40;36.88;;;;;;;-5.50;100.00;98531.09;1674325;84;21027;-80
2022/11/29 05:25:40;;;;;;;82.60;41.05;;;;;;;-5.48;100.00;98539.17;1674377;85;21032;-80
2022/11/29 05:28:21;;;;;;;82.33;38.35;;;;;;;-5.53;100.00;98540.19;1674440;85;21036;-77
2022/11/29 05:30:56;;;;;;;84.85;42.15;;;;;;;-5.54;100.00;98540.36;1673898;85;21234;-77
2022/11/29 05:33:50;;;;;;;100.60;42.73;;;;;;;-5.59;100.00;98538.20;1673995;85;21047;-80
2022/11/29 05:36:44;;;;;;;92.75;41.95;;;;;;;-5.57;100.00;98536.70;1674143;85;21569;-77
2022/11/29 05:39:48;;;;;;;87.37;41.50;;;;;;;-5.56;100.00;98542.31;1674080;84;21480;-77
2022/11/29 05:42:24;;;;;;;92.78;46.42;;;;;;;-5.65;100.00;98542.80;1671289;84;21484;-80
2022/11/29 05:44:59;;;;;;;80.03;40.10;;;;;;;-5.70;100.00;98545.13;1667308;86;21098;-77
2022/11/29 05:47:50;;;;;;;89.22;44.85;;;;;;;-5.66;100.00;98549.08;1667677;86;21508;-79
2022/11/29 05:50:32;;;;;;;78.62;35.28;;;;;;;-5.63;100.00;98555.86;1667329;86;21023;-76
2022/11/29 05:53:22;;;;;;;74.77;33.38;;;;;;;-5.56;100.00;98564.76;1659747;86;21055;-80
2022/11/29 05:56:10;;;;;;;74.27;32.95;;;;;;;-5.50;100.00;98562.30;1636572;86;21118;-80
2022/11/29 05:58:59;;;;;;;72.67;32.63;;;;;;;-5.41;100.00;98561.80;1671067;83;21041;-78
2022/11/29 06:01:40;;;;;;;65.75;31.82;;;;;;;-5.35;100.00;98564.28;1673824;85;21021;-80
2022/11/29 06:04:44;;;;;;;88.10;40.83;;;;;;;-5.36;100.00;98560.83;1673512;85;21010;-80
2022/11/29 06:07:51;;;;;;;69.90;34.67;;;;;;;-5.36;100.00;98560.83;1645482;85;22189;-80
2022/11/29 06:10:19;;;;;;;75.67;35.68;;;;;;;-5.37;100.00;98568.92;1673417;85;21031;-77
2022/11/29 06:13:06;;;;;;;71.00;37.45;;;;;;;-5.37;100.00;98575.52;1673487;84;21210;-77
2022/11/29 06:15:50;;;;;;;89.90;38.53;;;;;;;-5.37;100.00;98571.56;1668074;85;21500;-80
2022/11/29 06:18:35;;;;;;;80.17;36.35;;;;;;;-5.35;100.00;98577.50;1673508;85;21083;-77
2022/11/29 06:21:38;;;;;;;88.95;39.25;;;;;;;-5.33;100.00;98582.11;1659187;85;21031;-80
2022/11/29 06:24:33;;;;;;;98.00;45.83;;;;;;;-5.27;100.00;98582.78;1674231;85;21095;-76
2022/11/29 06:27:14;;;;;;;103.45;44.20;;;;;;;-5.26;100.00;98587.89;1674475;84;21215;-77
2022/11/29 06:30:08;;;;;;;81.10;35.23;;;;;;;-5.26;100.00;98588.39;1672865;85;21526;-79
2022/11/29 06:33:03;;;;;;;82.72;35.48;;;;;;;-5.21;100.00;98590.05;1673790;84;21092;-80
2022/11/29 06:35:36;;;;;;;98.17;44.73;;;;;;;-5.18;100.00;98592.36;1674066;85;22104;-77
2022/11/29 06:38:27;;;;;;;111.95;46.42;;;;;;;-5.18;100.00;98602.43;1674258;84;21004;-81
2022/11/29 06:40:56;;;;;;;98.67;44.73;;;;;;;-5.26;100.00;98594.50;1680525;85;21725;-80
2022/11/29 06:43:24;;;;;;;;;;;;;;;-5.27;100.00;98594.67;1677583;84;21047;-80
2022/11/29 06:45:55;;;;;;;86.53;40.23;;;;;;;-5.23;100.00;98603.91;1673056;85;20172;-80
2022/11/29 06:48:24;;;;;;;97.90;45.70;;;;;;;-5.22;100.00;98605.55;1675647;84;21000;-76
2022/11/29 06:51:17;;;;;;;107.43;44.58;;;;;;;-5.23;100.00;98601.27;1652697;85;21556;-77
2022/11/29 06:54:14;;;;;;;97.40;42.15;;;;;;;-5.20;100.00;98614.98;1674470;85;21144;-77
2022/11/29 06:56:49;;;;;;;116.20;50.50;;;;;;;-5.19;100.00;98614.00;1669525;85;21560;-80
2022/11/29 06:59:28;;;;;;;96.15;45.65;;;;;;;-5.17;100.00;98619.94;1655940;85;21465;-80
2022/11/29 07:02:23;;;;;;;111.17;49.05;;;;;;;-5.17;100.00;98617.29;1660766;85;21561;-80
2022/11/29 07:05:08;;;;;;;105.78;49.63;;;;;;;-5.15;100.00;98621.91;1679349;84;21530;-77
2022/11/29 07:07:35;;;;;;;109.55;44.38;;;;;;;-5.12;100.00;98626.89;1671869;85;21016;-77
2022/11/29 07:10:03;;;;;;;113.17;51.90;;;;;;;-5.18;100.00;98619.61;1678353;84;21521;-80
2022/11/29 07:12:30;;;;;;;102.78;50.90;;;;;;;-5.20;100.00;98614.98;1663890;84;21588;-77
2022/11/29 07:14:57;;;;;;;107.85;49.08;;;;;;;-5.16;100.00;98617.62;1669786;84;21135;-80
2022/11/29 07:17:36;;;;;;;109.97;46.73;;;;;;;-5.18;100.00;98617.47;1675798;84;21726;-80
2022/11/29 07:20:33;;;;;;;104.43;48.48;;;;;;;-5.18;100.00;98618.28;1673015;84;21052;-77
2022/11/29 07:23:11;;;;;;;156.28;72.82;;;;;;;-5.15;100.00;98611.84;1673216;84;21100;-80
2022/11/29 07:26:06;;;;;;;166.77;79.72;;;;;;;-5.08;100.00;98620.76;1671483;84;21187;-77
2022/11/29 07:29:29;;;;;;;147.10;72.95;;;;;;;-5.02;100.00;98618.78;1676608;84;21097;-80
2022/11/29 07:32:08;;;;;;;135.03;67.70;;;;;;;-4.94;100.00;98621.42;1657299;85;21013;-77
2022/11/29 07:35:06;;;;;;;123.05;59.80;;;;;;;-4.90;100.00;98622.73;1671534;84;21084;-77
2022/11/29 07:37:58;;;;;;;109.12;54.25;;;;;;;-4.83;100.00;98620.25;1676362;83;21083;-80
2022/11/29 07:40:35;;;;;;;108.87;52.55;;;;;;;-4.70;100.00;98620.58;1668664;83;21008;-80
2022/11/29 07:43:33;;;;;;;109.52;51.25;;;;;;;-4.61;100.00;98629.32;1671810;84;21052;-81
2022/11/29 07:46:00;;;;;;;107.17;52.65;;;;;;;-4.52;100.00;98626.98;1676626;83;21456;-80
2022/11/29 07:48:27;;;;;;;111.85;52.98;;;;;;;-4.45;100.00;98635.05;1668962;83;21014;-80
2022/11/29 07:50:54;;;;;;;107.58;54.35;;;;;;;-4.34;100.00;98633.38;1668886;84;21005;-76
2022/11/29 07:53:21;;;;;;;99.85;51.02;;;;;;;-4.34;100.00;98630.73;1670836;83;21116;-80
2022/11/29 07:55:48;;;;;;;113.90;58.23;;;;;;;-4.28;100.00;98630.03;1668285;83;21052;-77
2022/11/29 07:58:16;;;;;;;111.90;59.55;;;;;;;-4.20;100.00;98633.16;1650053;85;21053;-80
2022/11/29 08:00:43;;;;;;;110.93;57.30;;;;;;;-4.12;100.00;98629.16;1669304;84;21049;-81
2022/11/29 08:03:10;;;;;;;106.60;50.03;;;;;;;-4.10;100.00;98628.02;1676948;82;21374;-80
2022/11/29 08:05:37;;;;;;;95.07;45.03;;;;;;;-3.98;100.00;98633.25;1669386;84;21432;-80
2022/11/29 08:08:04;;;;;;;104.85;47.38;;;;;;;-3.87;100.00;98636.00;1668651;83;21103;-77
2022/11/29 08:10:31;;;;;;;109.20;49.27;;;;;;;-3.80;100.00;98632.17;1666416;83;21071;-77
2022/11/29 08:12:58;;;;;;;94.83;45.67;;;;;;;-3.73;100.00;98636.61;1670614;84;21529;-77
2022/11/29 08:15:26;;;;;;;112.10;60.05;;;;;;;-3.65;100.00;98636.24;1661455;83;20994;-77
2022/11/29 08:17:53;;;;;;;115.55;64.42;;;;;;;-3.60;100.00;98636.02;1669699;82;21447;-80
2022/11/29 08:20:20;;;;;;;132.82;65.57;;;;;;;-3.50;100.00;98631.85;1645998;86;21154;-80
2022/11/29 08:22:56;;;;;;;120.30;57.20;;;;;;;-3.41;100.00;98638.75;1653319;84;21522;-77
2022/11/29 08:25:23;;;;;;;142.85;61.60;;;;;;;-3.30;100.00;98637.01;1661715;84;21111;-80
2022/11/29 08:27:50;;;;;;;113.22;54.42;;;;;;;-3.23;100.00;98635.81;1668191;82;20983;-80
2022/11/29 08:30:21;;;;;;;119.47;65.52;;;;;;;-3.15;100.00;98639.23;1669057;84;21536;-77
2022/11/29 08:32:48;;;;;;;95.95;54.15;;;;;;;-3.09;100.00;98642.16;1669718;84;21028;-77
2022/11/29 08:35:16;;;;;;;96.28;50.83;;;;;;;-3.00;100.00;98639.76;1674860;84;22296;-76
2022/11/29 08:37:43;;;;;;;77.62;40.28;;;;;;;-2.94;100.00;98644.36;1668120;82;21082;-80
2022/11/29 08:40:11;;;;;;;81.22;43.55;;;;;;;-2.85;100.00;98648.09;1667897;83;21000;-80
2022/11/29 08:42:38;;;;;;;75.72;40.28;;;;;;;-2.74;100.00;98645.50;1675856;84;21618;-80
2022/11/29 08:45:06;;;;;;;66.55;38.73;;;;;;;-2.64;100.00;98647.92;1668375;84;21048;-77
2022/11/29 08:47:36;;;;;;;72.53;40.43;;;;;;;-2.56;100.00;98642.04;1671654;84;21319;-80
2022/11/29 08:50:15;;;;;;;73.60;40.08;;;;;;;-2.48;100.00;98633.65;1667032;83;21780;-77
2022/11/29 08:55:35;;;;;;;74.10;41.83;;;;;;;-2.27;100.00;98645.21;1667020;83;21135;-77
2022/11/29 08:58:06;;;;;;;59.67;29.37;;;;;;;-2.18;100.00;98644.63;1664425;84;21096;-80
2022/11/29 09:00:33;;;;;;;56.45;29.42;;;;;;;-2.09;100.00;98628.91;1673778;83;21091;-77
2022/11/29 09:05:48;;;;;;;;;;;;;;;-1.91;100.00;98631.69;1672802;84;21040;-80
2022/11/29 09:08:15;;;;;;;66.02;34.73;;;;;;;-1.79;100.00;98639.53;1694158;83;20484;-77
2022/11/29 09:10:42;;;;;;;72.00;36.73;;;;;;;-1.72;100.00;98629.27;1679248;84;21073;-80
2022/11/29 09:13:09;;;;;;;68.85;36.23;;;;;;;-1.64;100.00;98632.83;1666553;83;21406;-77
2022/11/29 09:15:37;;;;;;;84.60;45.38;;;;;;;-1.56;100.00;98630.89;1671676;84;21111;-80
2022/11/29 09:18:04;;;;;;;68.92;38.65;;;;;;;-1.50;100.00;98622.68;1667699;84;21103;-77
2022/11/29 09:20:32;;;;;;;54.95;28.67;;;;;;;-1.41;100.00;98633.52;1666785;84;21051;-80
2022/11/29 09:22:59;;;;;;;48.38;29.25;;;;;;;-1.32;100.00;98630.23;1655995;85;21103;-77
2022/11/29 09:25:26;;;;;;;47.20;27.65;;;;;;;-1.25;100.00;98621.82;1654451;84;21067;-80
2022/11/29 09:27:53;;;;;;;47.93;25.43;;;;;;;-1.16;100.00;98619.35;1670432;84;21698;-77
2022/11/29 09:30:20;;;;;;;60.28;29.42;;;;;;;-1.03;100.00;98626.61;1661488;84;22188;-77
2022/11/29 09:32:47;;;;;;;53.33;28.85;;;;;;;-0.92;100.00;98617.63;1666693;84;21005;-80
2022/11/29 09:35:14;;;;;;;84.65;37.33;;;;;;;-0.82;100.00;98613.82;1672802;84;21048;-80
2022/11/29 09:37:42;;;;;;;67.47;35.40;;;;;;;-0.70;100.00;98614.41;1671172;84;21036;-80
2022/11/29 09:40:16;;;;;;;112.52;51.37;;;;;;;-0.61;100.00;98615.92;1670470;84;21535;-82
2022/11/29 09:42:55;;;;;;;121.72;56.37;;;;;;;-0.47;100.00;98617.36;1668625;84;21495;-80
2022/11/29 09:45:38;;;;;;;104.05;52.45;;;;;;;-0.32;100.00;98617.56;1664508;84;21036;-80
2022/11/29 09:48:30;;;;;;;119.17;55.30;;;;;;;-0.22;100.00;98615.88;1665452;84;21432;-77
2022/11/29 09:51:11;;;;;;;93.03;46.25;;;;;;;-0.08;100.00;98619.45;1673786;84;20965;-81
2022/11/29 09:54:01;;;;;;;76.97;39.70;;;;;;;0.12;100.00;98615.03;1670275;84;21534;-77
2022/11/29 09:56:38;;;;;;;83.55;44.15;;;;;;;0.24;100.00;98615.28;1675516;84;21524;-77
2022/11/29 09:59:22;;;;;;;97.47;54.38;;;;;;;0.34;100.00;98612.23;1669100;84;21034;-80
2022/11/29 10:01:54;;;;;;;126.12;59.60;;;;;;;0.40;100.00;98614.93;1669055;84;21060;-77
2022/11/29 10:04:30;;;;;;;94.17;48.23;;;;;;;0.48;100.00;98609.94;1669044;84;21035;-80
2022/11/29 10:07:29;;;;;;;118.42;63.20;;;;;;;0.64;100.00;98610.91;1667584;84;21037;-81
2022/11/29 10:10:02;;;;;;;91.72;46.88;;;;;;;0.76;100.00;98605.79;1672535;83;21044;-81
2022/11/29 10:12:39;;;;;;;143.10;60.98;;;;;;;0.84;100.00;98606.94;1669640;84;21158;-77
2022/11/29 10:15:24;;;;;;;145.22;62.48;;;;;;;0.90;100.00;98603.46;1644964;86;21083;-80
2022/11/29 10:18:00;;;;;;;131.03;58.15;;;;;;;1.03;100.00;98606.67;1653800;84;21488;-77
2022/11/29 10:20:33;;;;;;;97.37;46.25;;;;;;;1.13;100.00;98600.41;1673207;84;21336;-77
2022/11/29 10:23:27;;;;;;;105.47;50.00;;;;;;;1.20;100.00;98597.23;1666827;84;21004;-80
2022/11/29 10:25:55;;;;;;;81.85;41.50;;;;;;;1.29;100.00;98593.33;1667254;84;21111;-81
2022/11/29 10:28:30;;;;;;;119.62;58.95;;;;;;;1.38;100.00;98598.77;1644629;85;21266;-77
2022/11/29 10:31:17;;;;;;;112.25;52.43;;;;;;;1.44;100.00;98592.27;1669858;84;21067;-77
2022/11/29 10:33:44;;;;;;;101.15;53.25;;;;;;;1.50;100.00;98592.27;1646325;84;21945;-80
2022/11/29 10:36:35;;;;;;;104.60;52.58;;;;;;;1.58;100.00;98588.56;1671554;84;21449;-80
2022/11/29 10:39:45;;;;;;;89.90;48.48;;;;;;;1.65;100.00;98584.04;1662231;84;21445;-81
2022/11/29 10:45:24;;;;;;;89.07;48.40;;;;;;;1.82;100.00;98575.06;1652069;84;21014;-78
2022/11/29 10:48:04;;;;;;;97.53;50.33;;;;;;;1.89;100.00;98575.34;1667219;84;21042;-82
2022/11/29 10:50:33;;;;;;;87.40;46.40;;;;;;;1.97;100.00;98579.64;1671151;84;21098;-80
2022/11/29 10:53:13;;;;;;;86.17;43.23;;;;;;;2.04;100.00;98577.74;1667966;84;21366;-81
2022/11/29 10:55:50;;;;;;;90.60;45.08;;;;;;;2.09;100.00;98569.11;1643371;85;20997;-80
2022/11/29 10:58:23;;;;;;;75.60;40.10;;;;;;;2.16;100.00;98571.24;1637215;86;21622;-77
2022/11/29 11:00:56;;;;;;;72.55;38.20;;;;;;;2.21;100.00;98572.22;1621469;86;21048;-81
2022/11/29 11:03:41;;;;;;;69.90;37.55;;;;;;;2.28;100.00;98572.72;1658343;84;21072;-81
2022/11/29 11:06:21;;;;;;;72.30;39.50;;;;;;;2.34;100.00;98563.85;1669695;84;21044;-81
2022/11/29 11:08:53;;;;;;;77.05;39.95;;;;;;;2.40;100.00;98563.83;1657511;85;21035;-81
2022/11/29 11:11:30;;;;;;;70.03;35.75;;;;;;;2.45;100.00;98566.66;1665973;84;20973;-81
2022/11/29 11:14:07;;;;;;;75.95;39.18;;;;;;;2.47;100.00;98568.59;1668926;84;21044;-77
2022/11/29 11:16:34;;;;;;;71.00;34.95;;;;;;;2.52;100.00;98563.44;1660604;84;21660;-77
2022/11/29 11:19:06;;;;;;;60.70;35.55;;;;;;;2.57;100.00;98561.98;1668412;84;21025;-77
2022/11/29 11:21:33;;;;;;;51.83;29.60;;;;;;;2.64;100.00;98562.22;1655559;85;21110;-81
2022/11/29 11:24:01;;;;;;;58.60;31.20;;;;;;;2.72;100.00;98562.48;1573962;88;21142;-77
2022/11/29 11:26:41;;;;;;;56.92;28.83;;;;;;;2.78;100.00;98565.12;1670421;84;21088;-77
2022/11/29 11:29:15;;;;;;;47.10;25.50;;;;;;;2.83;100.00;98564.49;1666721;84;21028;-81
2022/11/29 11:31:42;;;;;;;62.93;32.10;;;;;;;2.88;100.00;98563.31;1646358;85;21527;-80
2022/11/29 11:34:34;;;;;;;75.72;34.20;;;;;;;2.93;100.00;98564.83;1665004;85;21048;-81
2022/11/29 11:37:21;;;;;;;47.10;26.68;;;;;;;3.00;100.00;98563.45;1671362;84;21047;-78
2022/11/29 11:39:52;;;;;;;49.15;24.57;;;;;;;3.04;100.00;98560.62;1663736;84;21714;-78
2022/11/29 11:42:35;;;;;;;51.98;29.75;;;;;;;3.05;100.00;98565.75;1644802;84;21386;-81
2022/11/29 11:45:14;;;;;;;57.98;31.05;;;;;;;3.04;100.00;98567.31;1665981;84;21186;-78
2022/11/29 11:47:53;;;;;;;66.90;36.17;;;;;;;3.05;100.00;98563.08;1659135;84;28700;-81
2022/11/29 11:50:40;;;;;;;57.60;33.95;;;;;;;3.07;100.00;98566.34;1667137;84;21631;-81
2022/11/29 11:53:24;;;;;;;63.55;33.15;;;;;;;3.03;100.00;98566.50;1662231;84;21145;-81
2022/11/29 11:55:58;;;;;;;66.62;36.88;;;;;;;3.06;100.00;98570.59;1664848;84;21000;-80
2022/11/29 11:58:45;;;;;;;76.87;38.42;;;;;;;3.07;100.00;98566.34;1659549;84;21047;-77
2022/11/29 12:01:16;;;;;;;87.12;44.50;;;;;;;3.04;100.00;98569.47;1663482;84;21546;-81
2022/11/29 12:04:15;;;;;;;85.62;42.20;;;;;;;3.07;100.00;98565.53;1641689;85;21483;-78
2022/11/29 12:06:57;;;;;;;74.00;38.20;;;;;;;3.07;100.00;98562.33;1669605;84;21160;-77
2022/11/29 12:09:51;;;;;;;70.15;38.05;;;;;;;3.06;100.00;98566.05;1660969;84;21572;-77
2022/11/29 12:12:28;;;;;;;74.97;38.90;;;;;;;3.00;99.32;98566.94;1644388;85;21638;-78